AREA preflight bulletin
Updated "live" 15 Dec 2019, 11:16

back to the map




METAR og TAF


KANGERLUSSUAQ
  AKTUEL BGSF 151050Z AUTO 07008KT 9999NDV OVC050/// M12/M16 Q1020=
  TAF 24 timer BGSF 151104Z 1512/1522 07008KT 9999 BKN050 TEMPO 1515/1522 SCT050=

SISIMIUT
  AKTUEL BGSS 151050Z AUTO 08011KT 9999NDV -FZDZ OVC032/// M08/M13 Q1017=
  TAF 9 timer BGSS 141901Z 1419/1420 CNL=

MANIITSOQ
  AKTUEL BGMQ 151050Z AUTO 08010KT 9999NDV FEW049/// M08/M15 Q1017=

NUUK
  SPECI(AL) BGGH 151106Z 07014KT 9999 FEW040 M09/M15 Q1015=
  AKTUEL BGGH 151050Z AUTO 06017KT 9999NDV FEW200/// M09/M14 Q1015=
  TAF 9 timer BGGH 151109Z 1512/1517 07015KT 9999 FEW040=

ILULISSAT
  AKTUEL BGJN 151050Z AUTO 11015KT 9999NDV BKN050/// OVC065/// M11/M17 Q1018=
  TAF 9 timer BGJN 141711Z 1418/1423 11017KT 9999 DRSN BKN050 TEMPO 1418/1423 BKN035=

AASIAAT
  AKTUEL BGAA 151050Z AUTO 14014KT 9999NDV BKN063/// M07/M13 Q1017=
  TAF 9 timer BGAA 142003Z 1420/1421 CNL=


SIGMETS:

SONDRESTROM FIR
  SIGMET BGGL SIGMET 3 VALID 150930/151330 BGSF- BGGL NUUK FIR SEV TURB FCST AT 0930Z WI N6745 W03120 - N7353 W02015 - N7001 W02111 - N6831 W02601 - N6745 W03120 SFC/FL130 STNR NC=

NOTAM/SNOWTAM for operationel use has to be confirmed with the
nearest AIS Briefing Office prior to a flight.

ICAO
BGSS (SISIMIUT)

FIR
BGGL

Notam_id:
BGB0696/19

valid from:
1910311121

E) BGSS AFIS FREQ 118,100 MHZ NO COVERAGE IN SECTOR BETWEEN 280 MAG AND 110 MAG BELOW 7000FT.

valid to:
2001041800


Replacing:
BGB0585/19

ICAO
BGGH (NUUK)

FIR
BGGL

Notam_id:
BGB0814/19

valid from:
1912141502

E) BGGH AFIS FREQ 119.100 MHZ RADIOCOVERAGE LIMITED TO LINE OF SIGHT WITH AERODROME. RECIEVER/TRANSMITTER AT LILLE MALENE OUT OF SERVICE

valid to:
1912161911EST




ICAO
BGGH (NUUK)

FIR
BGGL

Notam_id:
BGB0799/19

valid from:
1912091203

E) LIGHTING ON RWY DESIGNATION SIGNS U/S.

valid to:
1912231200EST


Replacing:
BGB0782/19

ICAO
BGGL (SONDRESTROM FIR)

FIR
BGGL

Notam_id:
BGA0483/19

valid from:
1909271038

E) NUUK INFORMATION FREQ 5526 KHZ PSN 6334N03707W KULUSUK U/S.

valid to:
2004011800




ICAO
BGGL (SONDRESTROM FIR)

FIR
BGGL

Notam_id:
BGA0594/19

valid from:
1912010551

E) CHECKLIST YEAR=2018 0199 YEAR=2019 0483 0519 0527 0556 0566 0569 0570 0584 LATEST PUBLICATIONS AIP AIRAC AMDT IFR 008/2019 EFFECTIVE DATE 05 DEC 19 AIP AMDT IFR 003/2018 EFFECTIVE DATE 15 MAR 18 AIP SUP IFR 002/2019 EFFECTIVE DATE 08 NOV 19 AIC IFR A001/2019 EFFECTIVE DATE 17 JAN 19 AIC CHECKLIST AIP IFR A001/2016 A002/2016 A001/2017 A002/2017 A002/2018 A003/2018 A004/2018 A001/2019 AIP VFR NIL AIP MIL NIL SUP CHECKLIST AIP IFR 002/2019 AIP VFR NIL AIP MIL NIL

valid to:
2001010551EST


Replacing:
BGA0530/19

ICAO
BGGL (SONDRESTROM FIR)

FIR
BGGL

Notam_id:
BGB0781/19

valid from:
1912010552

E) CHECKLIST YEAR=2019 0145 0606 0655 0663 0677 0696 0734 0764 0765 0767 0775 0776 0779 0780 LATEST PUBLICATIONS AIP AIRAC AMDT IFR 008/2019 EFFECTIVE DATE 05 DEC 19 AIP AMDT IFR 003/2018 EFFECTIVE DATE 15 MAR 18 AIP SUP IFR 002/2019 EFFECTIVE DATE 08 NOV 19 AIC IFR A001/2019 EFFECTIVE DATE 17 JAN 19 AIC CHECKLIST AIP IFR A001/2016 A002/2016 A001/2017 A002/2017 A002/2018 A003/2018 A004/2018 A001/2019 AIP VFR NIL AIP MIL NIL SUP CHECKLIST AIP IFR 002/2019 AIP VFR NIL AIP MIL NIL

valid to:
2001010552EST


Replacing:
BGB0698/19

ICAO
BGGL (SONDRESTROM FIR)

FIR
BGGL

Notam_id:
BGC0127/19

valid from:
1912010552

E) CHECKLIST YEAR=2019 0067 0068 0070 0073 0096 0105 0106 0121 0125 LATEST PUBLICATIONS AIP AIRAC AMDT IFR 008/2019 EFFECTIVE DATE 05 DEC 19 AIP AMDT IFR 003/2018 EFFECTIVE DATE 15 MAR 18 AIP SUP IFR 002/2019 EFFECTIVE DATE 08 NOV 19 AIC IFR A001/2019 EFFECTIVE DATE 17 JAN 19 AIC CHECKLIST AIP IFR A001/2016 A002/2016 A001/2017 A002/2017 A002/2018 A003/2018 A004/2018 A001/2019 AIP VFR NIL AIP MIL NIL SUP CHECKLIST AIP IFR 002/2019 AIP VFR NIL AIP MIL NIL

valid to:
2001010552EST


Replacing:
BGC0117/19

ICAO
BGGL (SONDRESTROM FIR)

FIR
BGGL

Notam_id:
BGA0600/19

valid from:
1912170903

D) DAILY 0903-1020


E) DANGER AREA ACTIVATED TEMPORARY DANGER AREA ESTABLISHED IN BGGL FIR PART OF THE BELOW MENTIONED AREA. SOYUZ ROCKET LAUNCH VS23 FROM FRENCH GUYANA SPACE CENTER. DEBRIS IMPACTED AREA BOUNDED BY: 7035N06346W 7040N06203W 6911N06134W 6907N06310W F) SFC G) FL195

valid to:
1912241020




ICAO
BGGL (SONDRESTROM FIR)

FIR
BGGL

Notam_id:
BGA0519/19

valid from:
1912050000

E) TRIGGER NOTAM - PERM AIP AIRAC AMDT 08/19 WEF 05 DEC 2019. LIST OF AIRAC EFFECTIVE DATES UPDATED.

valid to:
1912182359




ICAO
BGGL (SONDRESTROM FIR)

FIR
BGGL

Notam_id:
BGA0199/18

valid from:
1805310935

E) GREENLAND AND ADJACENT WATERS ARE CONSIDERED HOSTILE AREAS BY THE CIVIL AVIATION AUTHORITY (TBST). THREE MAJOR REASONS CONTRIBUTE TO DEFINING THE AREA AS HOSTILE: A SAFE FORCED LANDING CANNOT BE ACCOMPLISHED BECAUSE THE SURFACE IS INADEQUATE. THE HELICOPTER OCCUPANTS CANNOT BE ADEQUATELY PROTECTED FROM THE ELEMENTS. SEARCH AND RESCUE RESPONSE/CAPABILITY ARE NOT PROVIDED CONSISTENT WITH ANTICIPATED EXPOSURE.

valid to:
PERM




ICAO
BGGL (SONDRESTROM FIR)

FIR
BGGL

Notam_id:
BGA0601/19

valid from:
2001300000

E) AIP GREENLAND AIRAC AMDT EFFECTIVE DATE 30 JAN 2020: NIL.

valid to:
2002122359




ICAO
BGGL (SONDRESTROM FIR)

FIR
BGGL

Notam_id:
BGA0584/19

valid from:
2001020000

E) AIP GREENLAND AIRAC AMDT EFFECTIVE DATE 02 JAN 2020: NIL.

valid to:
2001152359





Copyright Naviair   2003-2016